createdAt,value
2023-04-15T00:00:48.194Z,100960.31
2023-04-15T00:03:35.330Z,100964.63
2023-04-15T00:06:22.633Z,100968.88
2023-04-15T00:09:09.414Z,100963.72
2023-04-15T00:11:56.226Z,100966.31
2023-04-15T00:14:43.015Z,100970.56
2023-04-15T00:17:30.241Z,100967.16
2023-04-15T00:20:17.084Z,100966.25
2023-04-15T00:23:04.234Z,100960.19
2023-04-15T00:25:51.409Z,100969.69
2023-04-15T00:28:38.182Z,100965.28
2023-04-15T00:31:25.014Z,100978.25
2023-04-15T00:34:11.913Z,100974.75
2023-04-15T00:36:58.753Z,100975.63
2023-04-15T00:39:45.559Z,100977.31
2023-04-15T00:42:32.586Z,100983.34
2023-04-15T00:45:19.649Z,100982.44
2023-04-15T00:48:06.639Z,100986.75
2023-04-15T00:50:53.516Z,100994.47
2023-04-15T00:53:40.628Z,100992.69
2023-04-15T00:56:28.894Z,100992.63
2023-04-15T00:59:17.588Z,100989.19
2023-04-15T01:02:05.516Z,100989.13
2023-04-15T01:04:52.678Z,100991.72
2023-04-15T01:07:39.496Z,101001.19
2023-04-15T01:10:27.218Z,101002.03
2023-04-15T01:13:14.050Z,101011.50
2023-04-15T01:16:01.034Z,101016.63
2023-04-15T01:18:48.924Z,101011.41
2023-04-15T01:21:39.149Z,101016.56
2023-04-15T01:24:27.595Z,101026.06
2023-04-15T01:27:14.747Z,101026.06
2023-04-15T01:30:01.574Z,101032.91
2023-04-15T01:32:48.562Z,101026.88
2023-04-15T01:35:35.449Z,101036.34
2023-04-15T01:38:22.322Z,101033.78
2023-04-15T01:41:09.140Z,101032.03
2023-04-15T01:43:55.972Z,101043.22
2023-04-15T01:46:42.885Z,101048.38
2023-04-15T01:49:29.731Z,101052.66
2023-04-15T01:52:16.545Z,101046.59
2023-04-15T01:55:03.537Z,101059.44
2023-04-15T01:57:50.394Z,101063.78
2023-04-15T02:00:37.249Z,101067.16
2023-04-15T02:03:25.615Z,101061.09
2023-04-15T02:06:12.867Z,101068.91
2023-04-15T02:08:59.934Z,101074.91
2023-04-15T02:11:47.030Z,101089.56
2023-04-15T02:14:33.905Z,101083.56
2023-04-15T02:17:20.829Z,101086.16
2023-04-15T02:20:09.108Z,101092.22
2023-04-15T02:22:56.170Z,101089.69
2023-04-15T02:25:42.944Z,101100.06
2023-04-15T02:28:40.498Z,101100.13
2023-04-15T02:31:27.343Z,101110.47
2023-04-15T02:34:14.276Z,101110.50
2023-04-15T02:37:04.890Z,101118.25
2023-04-15T02:39:52.504Z,101119.19
2023-04-15T02:42:40.834Z,101125.22
2023-04-15T02:45:31.045Z,101126.94
2023-04-15T02:48:20.991Z,101130.38
2023-04-15T02:51:15.270Z,101132.97
2023-04-15T02:54:02.059Z,101137.31
2023-04-15T02:56:49.089Z,101135.63
2023-04-15T02:59:35.923Z,101135.59
2023-04-15T03:02:23.143Z,101141.69
2023-04-15T03:05:14.198Z,101150.31
2023-04-15T03:08:07.193Z,101147.78
2023-04-15T03:10:53.956Z,101152.94
2023-04-15T03:13:42.834Z,101159.00
2023-04-15T03:16:40.565Z,101160.75
2023-04-15T03:19:27.664Z,101165.03
2023-04-15T03:22:14.442Z,101167.72
2023-04-15T03:25:01.316Z,101178.06
2023-04-15T03:27:48.229Z,101176.38
2023-04-15T03:30:35.150Z,101187.63
2023-04-15T03:33:22.004Z,101191.97
2023-04-15T03:36:08.853Z,101193.72
2023-04-15T03:38:55.685Z,101199.75
2023-04-15T03:41:42.510Z,101196.31
2023-04-15T03:44:29.329Z,101202.34
2023-04-15T03:47:16.130Z,101211.88
2023-04-15T03:50:03.145Z,101213.56
2023-04-15T03:52:51.147Z,101211.88
2023-04-15T03:55:38.087Z,101220.56
2023-04-15T03:58:24.837Z,101227.41
2023-04-15T04:01:11.701Z,101229.16
2023-04-15T04:03:58.731Z,101237.78
2023-04-15T04:06:45.700Z,101244.66
2023-04-15T04:09:32.538Z,101242.94
2023-04-15T04:12:19.524Z,101249.81
2023-04-15T04:15:06.853Z,101241.19
2023-04-15T04:17:53.746Z,101253.28
2023-04-15T04:20:40.596Z,101261.91
2023-04-15T04:23:27.540Z,101260.19
2023-04-15T04:26:14.363Z,101264.47
2023-04-15T04:29:01.391Z,101270.44
2023-04-15T04:31:48.577Z,101269.53
2023-04-15T04:34:35.462Z,101280.78
2023-04-15T04:37:22.262Z,101275.59
2023-04-15T04:40:09.593Z,101284.22
2023-04-15T04:42:56.455Z,101289.31
2023-04-15T04:45:43.261Z,101292.72
2023-04-15T04:48:30.089Z,101292.72
2023-04-15T04:51:18.377Z,101290.97
2023-04-15T04:54:05.278Z,101303.00
2023-04-15T04:56:52.107Z,101309.84
2023-04-15T04:59:39.217Z,101311.56
2023-04-15T05:02:26.131Z,101325.31
2023-04-15T05:05:13.027Z,101330.44
2023-04-15T05:07:59.853Z,101334.75
2023-04-15T05:10:46.809Z,101340.75
2023-04-15T05:13:33.656Z,101338.94
2023-04-15T05:16:20.525Z,101351.94
2023-04-15T05:19:07.473Z,101357.91
2023-04-15T05:21:54.413Z,101357.91
2023-04-15T05:24:41.241Z,101373.47
2023-04-15T05:27:28.037Z,101373.47
2023-04-15T05:30:14.817Z,101374.31
2023-04-15T05:33:01.725Z,101377.75
2023-04-15T05:35:48.574Z,101390.72
2023-04-15T05:38:35.341Z,101384.63
2023-04-15T05:41:22.217Z,101388.16
2023-04-15T05:44:08.972Z,101406.25
2023-04-15T05:46:55.758Z,101412.31
2023-04-15T05:49:42.519Z,101421.81
2023-04-15T05:52:29.427Z,101427.84
2023-04-15T05:55:16.276Z,101437.41
2023-04-15T05:58:03.062Z,101451.19
2023-04-15T06:00:49.884Z,101448.66
2023-04-15T06:03:36.813Z,101465.88
2023-04-15T06:06:24.077Z,101459.91
2023-04-15T06:09:10.878Z,101471.09
2023-04-15T06:11:58.879Z,101477.97
2023-04-15T06:14:45.681Z,101482.28
2023-04-15T06:17:32.518Z,101490.94
2023-04-15T06:20:19.335Z,101497.84
2023-04-15T06:23:06.158Z,101507.34
2023-04-15T06:25:52.967Z,101510.88
2023-04-15T06:28:39.769Z,101523.84
2023-04-15T06:31:26.919Z,101530.69
2023-04-15T06:34:13.739Z,101537.66
2023-04-15T06:37:00.558Z,101531.66
2023-04-15T06:39:47.375Z,101544.56
2023-04-15T06:42:35.006Z,101542.91
2023-04-15T06:45:21.769Z,101553.28
2023-04-15T06:48:08.557Z,101551.47
2023-04-15T06:50:55.412Z,101553.28
2023-04-15T06:53:42.259Z,101545.28
2023-04-15T06:56:29.311Z,101566.97
2023-04-15T06:59:16.103Z,101563.50
2023-04-15T07:02:03.056Z,101573.84
2023-04-15T07:04:50.008Z,101576.38
2023-04-15T07:07:36.850Z,101577.28
2023-04-15T07:10:24.602Z,101588.47
2023-04-15T07:13:12.880Z,101589.34
2023-04-15T07:15:59.752Z,101602.34
2023-04-15T07:18:46.606Z,101606.66
2023-04-15T07:21:33.417Z,101607.50
2023-04-15T07:24:20.262Z,101614.50
2023-04-15T07:27:07.095Z,101618.84
2023-04-15T07:29:53.880Z,101624.06
2023-04-15T07:32:41.700Z,101629.28
2023-04-15T07:35:28.509Z,101632.91
2023-04-15T07:38:15.453Z,101644.38
2023-04-15T07:41:02.308Z,101649.81
2023-04-15T07:43:49.241Z,101652.56
2023-04-15T07:46:36.206Z,101658.81
2023-04-15T07:49:23.156Z,101659.75
2023-04-15T07:52:09.977Z,101665.03
2023-04-15T07:54:56.787Z,101666.94
2023-04-15T07:57:43.630Z,101680.88
2023-04-15T08:00:30.523Z,101682.72
2023-04-15T08:03:17.415Z,101682.84
2023-04-15T08:06:04.433Z,101687.25
2023-04-15T08:08:51.247Z,101698.56
2023-04-15T08:11:38.085Z,101708.22
2023-04-15T08:14:24.980Z,101709.22
2023-04-15T08:17:11.799Z,101715.38
2023-04-15T08:19:58.598Z,101714.63
2023-04-15T08:22:45.396Z,101721.66
2023-04-15T08:25:32.206Z,101731.22
2023-04-15T08:28:19.019Z,101740.03
2023-04-15T08:31:06.052Z,101746.25
2023-04-15T08:33:52.948Z,101736.13
2023-04-15T08:36:39.773Z,101748.44
2023-04-15T08:39:26.584Z,101759.06
2023-04-15T08:42:17.452Z,101747.94
2023-04-15T08:45:05.123Z,101768.00
2023-04-15T08:47:56.015Z,101771.53
2023-04-15T08:50:43.337Z,101780.16
2023-04-15T08:53:30.546Z,101786.22
2023-04-15T08:56:19.142Z,101786.19
2023-04-15T08:59:07.217Z,101797.53
2023-04-15T09:01:54.820Z,101813.22
2023-04-15T09:04:41.599Z,101817.69
2023-04-15T09:07:28.352Z,101813.53
2023-04-15T09:10:15.144Z,101817.13
2023-04-15T09:13:02.087Z,101815.47
2023-04-15T09:15:48.910Z,101820.78
2023-04-15T09:18:36.842Z,101824.41
2023-04-15T09:21:24.589Z,101829.75
2023-04-15T09:24:11.507Z,101827.34
2023-04-15T09:26:58.384Z,101841.50
2023-04-15T09:29:50.132Z,101841.75
2023-04-15T09:32:47.687Z,101845.50
2023-04-15T09:35:34.983Z,101850.03
2023-04-15T09:38:21.791Z,101857.00
2023-04-15T09:41:17.494Z,101860.50
2023-04-15T09:44:04.566Z,101864.84
2023-04-15T09:46:51.387Z,101867.44
2023-04-15T09:49:38.321Z,101877.03
2023-04-15T09:52:25.308Z,101882.25
2023-04-15T09:55:13.777Z,101883.13
2023-04-15T09:58:00.627Z,101877.06
2023-04-15T10:00:48.870Z,101888.34
2023-04-15T10:03:36.090Z,101884.84
2023-04-15T10:06:25.878Z,101896.09
2023-04-15T10:09:13.356Z,101899.56
2023-04-15T10:12:00.305Z,101894.38
2023-04-15T10:14:59.409Z,101886.59
2023-04-15T10:17:48.460Z,101891.75
2023-04-15T10:20:36.757Z,101898.69
2023-04-15T10:23:23.676Z,101897.81
2023-04-15T10:26:12.164Z,101895.22
2023-04-15T10:29:00.190Z,101911.78
2023-04-15T10:31:48.509Z,101912.66
2023-04-15T10:34:35.938Z,101913.53
2023-04-15T10:37:33.364Z,101909.16
2023-04-15T10:40:27.824Z,101923.88
2023-04-15T10:43:25.538Z,101920.28
2023-04-15T10:46:12.362Z,101920.22
2023-04-15T10:49:07.911Z,101934.09
2023-04-15T10:51:58.608Z,101935.78
2023-04-15T10:54:45.490Z,101936.50
2023-04-15T10:57:38.466Z,101931.19
2023-04-15T11:00:26.508Z,101937.16
2023-04-15T11:03:13.473Z,101938.81
2023-04-15T11:06:00.404Z,101937.00
2023-04-15T11:09:00.178Z,101950.09
2023-04-15T11:12:06.446Z,101951.25
2023-04-15T11:14:53.300Z,101952.28
2023-04-15T11:17:40.331Z,101948.81
2023-04-15T11:20:27.179Z,101959.28
2023-04-15T11:23:15.834Z,101961.84
2023-04-15T11:26:05.320Z,101950.47
2023-04-15T11:28:52.149Z,101966.81
2023-04-15T11:31:38.979Z,101964.00
2023-04-15T11:34:25.856Z,101969.94
2023-04-15T11:37:12.715Z,101976.78
2023-04-15T11:39:59.550Z,101988.16
2023-04-15T11:42:49.626Z,101986.41
2023-04-15T11:45:38.332Z,101993.50
2023-04-15T11:48:33.496Z,101991.88
2023-04-15T11:51:20.382Z,101994.59
2023-04-15T11:54:07.471Z,101991.97
2023-04-15T11:56:54.502Z,101984.03
2023-04-15T11:59:46.021Z,101990.94
2023-04-15T12:02:37.267Z,101997.91
2023-04-15T12:05:24.365Z,101994.31
2023-04-15T12:08:11.201Z,101988.03
2023-04-15T12:10:59.464Z,101989.66
2023-04-15T12:13:48.261Z,102000.88
2023-04-15T12:16:48.394Z,101998.13
2023-04-15T12:19:37.391Z,101991.19
2023-04-15T12:22:24.250Z,102010.44
2023-04-15T12:25:11.037Z,102017.53
2023-04-15T12:27:57.810Z,102022.00
2023-04-15T12:30:51.024Z,102016.16
2023-04-15T12:33:38.302Z,102028.53
2023-04-15T12:36:25.233Z,102019.84
2023-04-15T12:39:12.825Z,102016.38
2023-04-15T12:41:59.817Z,102020.75
2023-04-15T12:44:46.771Z,102024.31
2023-04-15T12:47:33.622Z,102030.53
2023-04-15T12:50:20.424Z,102041.00
2023-04-15T12:53:07.271Z,102043.63
2023-04-15T12:55:54.542Z,102039.25
2023-04-15T12:58:41.327Z,102033.13
2023-04-15T13:01:28.154Z,102046.03
2023-04-15T13:04:16.409Z,102052.97
2023-04-15T13:07:03.440Z,102053.72
2023-04-15T13:09:50.228Z,102051.94
2023-04-15T13:12:37.088Z,102051.13
2023-04-15T13:15:24.019Z,102066.81
2023-04-15T13:18:10.869Z,102060.75
2023-04-15T13:20:57.699Z,102063.44
2023-04-15T13:23:44.523Z,102065.31
2023-04-15T13:26:31.314Z,102072.31
2023-04-15T13:29:18.146Z,102072.41
2023-04-15T13:32:05.224Z,102077.66
2023-04-15T13:34:52.202Z,102083.78
2023-04-15T13:37:39.037Z,102084.47
2023-04-15T13:40:25.856Z,102084.22
2023-04-15T13:43:12.640Z,102077.03
2023-04-15T13:45:59.616Z,102087.38
2023-04-15T13:48:46.410Z,102090.88
2023-04-15T13:51:33.231Z,102092.41
2023-04-15T13:54:19.985Z,102094.19
2023-04-15T13:57:07.000Z,102096.09
2023-04-15T13:59:53.922Z,102091.91
2023-04-15T14:02:41.141Z,102099.06
2023-04-15T14:05:28.129Z,102091.31
2023-04-15T14:08:14.928Z,102100.69
2023-04-15T14:11:01.760Z,102105.19
2023-04-15T14:13:48.539Z,102109.19
2023-04-15T14:16:35.431Z,102106.69
2023-04-15T14:19:22.246Z,102113.06
2023-04-15T14:22:09.046Z,102106.47
2023-04-15T14:24:55.838Z,102105.41
2023-04-15T14:27:42.644Z,102109.78
2023-04-15T14:30:29.493Z,102111.34
2023-04-15T14:33:16.398Z,102125.91
2023-04-15T14:36:03.405Z,102116.56
2023-04-15T14:38:50.261Z,102128.31
2023-04-15T14:41:37.138Z,102127.66
2023-04-15T14:44:23.949Z,102128.75
2023-04-15T14:47:10.748Z,102124.94
2023-04-15T14:49:57.709Z,102134.81
2023-04-15T14:52:44.573Z,102133.59
2023-04-15T14:55:31.362Z,102135.09
2023-04-15T14:58:18.202Z,102144.94
2023-04-15T15:01:05.220Z,102141.25
2023-04-15T15:03:52.178Z,102146.75
2023-04-15T15:06:39.905Z,102146.25
2023-04-15T15:09:27.029Z,102152.28
2023-04-15T15:12:13.838Z,102162.66
2023-04-15T15:15:02.920Z,102167.00
2023-04-15T15:17:51.785Z,102178.38
2023-04-15T15:20:38.594Z,102191.38
2023-04-15T15:23:25.409Z,102204.03
2023-04-15T15:26:12.554Z,102207.28
2023-04-15T15:28:59.359Z,102219.91
2023-04-15T15:31:46.412Z,102225.16
2023-04-15T15:34:33.311Z,102219.91
2023-04-15T15:37:20.174Z,102220.50
2023-04-15T15:40:08.062Z,102224.44
2023-04-15T15:42:54.891Z,102231.84
2023-04-15T15:45:41.745Z,102229.41
2023-04-15T15:48:28.581Z,102224.44
2023-04-15T15:51:15.394Z,102231.63
2023-04-15T15:54:02.272Z,102237.91
2023-04-15T15:56:49.074Z,102230.19
2023-04-15T15:59:35.882Z,102235.53
2023-04-15T16:02:40.069Z,102234.72
2023-04-15T16:05:29.424Z,102232.97
2023-04-15T16:08:16.256Z,102239.09
2023-04-15T16:11:03.129Z,102234.72
2023-04-15T16:13:49.933Z,102243.41
2023-04-15T16:16:38.652Z,102242.53
2023-04-15T16:19:25.505Z,102250.38
2023-04-15T16:22:12.363Z,102259.91
2023-04-15T16:24:59.602Z,102262.50
2023-04-15T16:27:58.957Z,102266.81
2023-04-15T16:30:50.339Z,102269.41
2023-04-15T16:33:37.397Z,102271.16
2023-04-15T16:36:24.196Z,102278.09
2023-04-15T16:39:11.023Z,102273.69
2023-04-15T16:41:58.003Z,102287.75
2023-04-15T16:44:44.828Z,102290.44
2023-04-15T16:47:31.694Z,102287.84
2023-04-15T16:50:18.628Z,102291.31
2023-04-15T16:53:05.483Z,102295.66
2023-04-15T16:55:52.312Z,102302.59
2023-04-15T16:58:39.101Z,102301.69
2023-04-15T17:01:26.003Z,102305.13
2023-04-15T17:04:12.908Z,102304.25
2023-04-15T17:06:59.851Z,102299.88
2023-04-15T17:09:46.604Z,102286.78
2023-04-15T17:12:33.497Z,102289.41
2023-04-15T17:15:20.293Z,102294.69
2023-04-15T17:18:07.106Z,102292.06
2023-04-15T17:20:55.731Z,102280.75
2023-04-15T17:23:42.577Z,102292.94
2023-04-15T17:26:29.461Z,102294.66
2023-04-15T17:29:16.281Z,102297.25
2023-04-15T17:32:03.847Z,102298.94
2023-04-15T17:34:51.348Z,102310.16
2023-04-15T17:37:38.452Z,102309.25
2023-04-15T17:40:25.283Z,102315.28
2023-04-15T17:43:12.066Z,102316.13
2023-04-15T17:45:58.848Z,102318.72
2023-04-15T17:48:46.474Z,102326.53
2023-04-15T17:51:33.361Z,102321.25
2023-04-15T17:54:26.724Z,102325.66
2023-04-15T17:57:13.656Z,102331.75
2023-04-15T18:00:00.551Z,102323.06
2023-04-15T18:02:47.407Z,102330.00
2023-04-15T18:05:34.419Z,102329.16
2023-04-15T18:08:21.293Z,102345.69
2023-04-15T18:11:08.134Z,102339.59
2023-04-15T18:13:54.960Z,102343.94
2023-04-15T18:16:41.883Z,102338.72
2023-04-15T18:19:29.749Z,102335.19
2023-04-15T18:22:16.560Z,102349.09
2023-04-15T18:25:04.045Z,102347.34
2023-04-15T18:27:51.035Z,102345.56
2023-04-15T18:30:37.893Z,102345.53
2023-04-15T18:33:24.753Z,102339.41
2023-04-15T18:36:11.587Z,102345.41
2023-04-15T18:38:58.434Z,102347.06
2023-04-15T18:41:45.248Z,102353.94
2023-04-15T18:44:32.130Z,102358.22
2023-04-15T18:47:19.324Z,102365.94
2023-04-15T18:50:07.513Z,102370.19
2023-04-15T18:52:54.364Z,102358.75
2023-04-15T18:55:41.172Z,102372.56
2023-04-15T18:58:27.980Z,102373.28
2023-04-15T19:01:34.815Z,102373.16
2023-04-15T19:04:21.828Z,102373.91
2023-04-15T19:07:08.647Z,102384.16
2023-04-15T19:09:55.536Z,102385.75
2023-04-15T19:12:42.353Z,102389.09
2023-04-15T19:15:29.605Z,102392.38
2023-04-15T19:18:16.403Z,102390.44
2023-04-15T19:21:03.350Z,102393.72
2023-04-15T19:23:50.213Z,102407.41
2023-04-15T19:26:37.036Z,102405.44
2023-04-15T19:29:25.037Z,102415.66
2023-04-15T19:32:11.844Z,102422.41
2023-04-15T19:34:58.793Z,102418.72
2023-04-15T19:37:47.423Z,102423.69
2023-04-15T19:40:34.224Z,102428.69
2023-04-15T19:43:21.074Z,102432.88
2023-04-15T19:46:08.141Z,102435.25
2023-04-15T19:48:55.336Z,102442.00
2023-04-15T19:51:42.232Z,102446.97
2023-04-15T19:54:29.042Z,102443.38
2023-04-15T19:57:15.830Z,102446.63
2023-04-15T20:00:02.670Z,102457.69
2023-04-15T20:02:52.710Z,102456.63
2023-04-15T20:05:39.636Z,102463.38
2023-04-15T20:08:26.460Z,102462.31
2023-04-15T20:11:15.197Z,102465.56
2023-04-15T20:14:02.151Z,102472.34
2023-04-15T20:16:49.265Z,102469.44
2023-04-15T20:19:36.071Z,102477.94
2023-04-15T20:22:22.954Z,102475.16
2023-04-15T20:25:09.920Z,102481.00
2023-04-15T20:27:56.715Z,102477.38
2023-04-15T20:30:43.574Z,102475.47
2023-04-15T20:33:30.508Z,102494.28
2023-04-15T20:36:17.339Z,102490.63
2023-04-15T20:39:07.074Z,102492.09
2023-04-15T20:41:54.024Z,102494.53
2023-04-15T20:44:40.835Z,102500.38
2023-04-15T20:47:27.869Z,102501.88
2023-04-15T20:50:14.772Z,102506.94
2023-04-15T20:53:01.601Z,102511.19
2023-04-15T20:55:48.523Z,102503.16
2023-04-15T20:58:35.319Z,102509.88
2023-04-15T21:01:22.206Z,102516.63
2023-04-15T21:04:09.191Z,102505.22
2023-04-15T21:06:56.065Z,102507.63
2023-04-15T21:09:42.874Z,102506.59
2023-04-15T21:12:29.702Z,102508.06
2023-04-15T21:15:16.510Z,102514.66
2023-04-15T21:18:03.358Z,102515.38
2023-04-15T21:21:01.062Z,102518.63
2023-04-15T21:23:47.851Z,102525.34
2023-04-15T21:26:34.692Z,102522.66
2023-04-15T21:29:21.510Z,102519.94
2023-04-15T21:32:08.497Z,102526.81
2023-04-15T21:34:55.365Z,102532.81
2023-04-15T21:37:42.174Z,102534.50
2023-04-15T21:40:29.569Z,102541.31
2023-04-15T21:43:16.482Z,102542.13
2023-04-15T21:46:23.229Z,102541.19
2023-04-15T21:49:10.219Z,102542.88
2023-04-15T21:51:57.056Z,102545.34
2023-04-15T21:54:43.848Z,102551.28
2023-04-15T21:57:30.641Z,102549.41
2023-04-15T22:00:17.479Z,102547.56
2023-04-15T22:03:04.389Z,102542.28
2023-04-15T22:05:51.316Z,102544.69
2023-04-15T22:08:48.250Z,102550.63
2023-04-15T22:11:42.597Z,102549.63
2023-04-15T22:14:30.150Z,102549.59
2023-04-15T22:17:16.958Z,102546.91
2023-04-15T22:20:03.994Z,102538.13
2023-04-15T22:22:54.349Z,102548.38
2023-04-15T22:25:41.323Z,102542.19
2023-04-15T22:28:28.123Z,102543.75
2023-04-15T22:31:14.958Z,102555.00
2023-04-15T22:34:01.928Z,102555.72
2023-04-15T22:36:49.683Z,102565.94
2023-04-15T22:39:36.540Z,102564.94
2023-04-15T22:42:24.506Z,102570.00
2023-04-15T22:45:11.485Z,102570.75
2023-04-15T22:47:58.330Z,102573.31
2023-04-15T22:50:45.313Z,102574.88
2023-04-15T22:53:32.187Z,102570.44
2023-04-15T22:56:21.100Z,102573.84
2023-04-15T22:59:08.300Z,102576.34
2023-04-15T23:01:55.349Z,102579.59
2023-04-15T23:04:42.339Z,102582.09
2023-04-15T23:07:29.212Z,102575.97
2023-04-15T23:10:16.037Z,102575.00
2023-04-15T23:13:02.816Z,102582.69
2023-04-15T23:15:49.698Z,102586.13
2023-04-15T23:18:36.520Z,102586.97
2023-04-15T23:21:25.509Z,102590.31
2023-04-15T23:24:12.946Z,102591.97
2023-04-15T23:26:59.762Z,102588.50
2023-04-15T23:29:46.554Z,102587.53
2023-04-15T23:32:33.449Z,102590.09
2023-04-15T23:35:20.250Z,102591.72
2023-04-15T23:38:07.053Z,102588.25
2023-04-15T23:40:53.855Z,102589.06
2023-04-15T23:43:40.646Z,102585.59
2023-04-15T23:46:27.539Z,102589.72
2023-04-15T23:49:14.554Z,102590.59
2023-04-15T23:52:01.403Z,102587.97
2023-04-15T23:54:48.210Z,102586.22
2023-04-15T23:57:34.974Z,102582.56
